Solana — WCY5602 — position and weather

sailwx.info

Track history (hours):
 
Tides and Currents Weather Stations Pressure Air Temp Water Temp Dewpoint Dewpoint Depression Visibility Wind Speed Wind Dir Waves Ship Positions

Solana

Owner: TAURUS MARINE, SAN FRANCISCO, CA. More information available from US FCC via Universal Licensing System and Coast Guard Vessel Documentation Center.

Last reported at 2017-Jan-24 18:33 UTC. Time now 2017-Jan-24 19:14 UTC.
Position N 37°48' W 122°22'.

Length 21 m; draft 3 m.

Type: Ship (hazmat cat A). MMSI: 366969740.

Date/timePositionNaut miles runAvg speedWind from/ knotsBaromVisibWave heightAir tempDewpointWater temp
2017-Jan-24 18:33N 37°48' W 122°22'1 1.3
2017-Jan-24 17:33N 37°48' W 122°23'4 4.1
2017-Jan-24 16:33N 37°49' W 122°19'0 0.4
2017-Jan-24 15:33N 37°49' W 122°19'1 1.0
2017-Jan-24 14:33N 37°49' W 122°20'1 0.8
2017-Jan-24 13:34N 37°49' W 122°19'3 0.2
2017-Jan-23 22:33N 37°47' W 122°23'4 3.9
2017-Jan-23 21:33N 37°49' W 122°19'0 0.3
2017-Jan-23 20:33N 37°49' W 122°19'1 1.0
2017-Jan-23 19:33N 37°49' W 122°20'1 0.8
2017-Jan-23 18:33N 37°48' W 122°20'0 0.2
2017-Jan-23 17:34N 37°49' W 122°21'1 1.4
2017-Jan-23 16:33N 37°49' W 122°19'1 0.5
2017-Jan-23 15:33N 37°49' W 122°20'1 0.5
2017-Jan-23 14:33N 37°49' W 122°20'1 0.9
2017-Jan-23 13:33N 37°49' W 122°19'4 0.1
2017-Jan-22 08:09N 37°46' W 122°23'0 0.0
2017-Jan-22 07:33N 37°46' W 122°23'0 0.0
2017-Jan-22 06:34N 37°46' W 122°23'0 0.0
2017-Jan-22 05:34N 37°46' W 122°23'0 0.0
2017-Jan-22 04:34N 37°46' W 122°23'0 0.0
2017-Jan-21 00:33N 37°46' W 122°23'3 2.6
2017-Jan-20 23:34N 37°49' W 122°25'0 0.0
2017-Jan-20 22:33N 37°49' W 122°25'4 4.1
2017-Jan-20 21:33N 37°49' W 122°20'0 0.5
2017-Jan-20 20:34N 37°49' W 122°20'0 0.0
2017-Jan-20 19:34N 37°49' W 122°20'1 0.8
2017-Jan-20 18:34N 37°49' W 122°19'1 0.8
2017-Jan-20 17:34N 37°49' W 122°20'0 0.0
2017-Jan-20 16:33N 37°49' W 122°20'0 0.5
2017-Jan-20 15:33N 37°49' W 122°20'1 1.4
2017-Jan-20 14:34N 37°49' W 122°21'2 1.9
2017-Jan-20 13:34N 37°49' W 122°19'4 0.4
2017-Jan-20 03:33N 37°46' W 122°23'0 0.0
2017-Jan-20 02:33N 37°46' W 122°23'2 2.2
2017-Jan-20 01:33N 37°45' W 122°21'2 1.9
2017-Jan-20 00:33N 37°46' W 122°23'0 0.3
2017-Jan-19 23:33N 37°46' W 122°23'0 0.0
2017-Jan-19 22:05N 37°46' W 122°23'3 5.6
2017-Jan-19 21:33N 37°49' W 122°20'1 0.8
2017-Jan-19 20:33N 37°49' W 122°20'0 0.3
2017-Jan-19 19:33N 37°49' W 122°20'1 0.7
2017-Jan-19 18:33N 37°49' W 122°19'0 0.0
2017-Jan-19 17:33N 37°49' W 122°19'0 0.0
2017-Jan-19 16:33N 37°49' W 122°19'0 0.0
2017-Jan-19 15:33N 37°49' W 122°19'1 0.7
2017-Jan-19 14:33N 37°49' W 122°20'1 0.6
2017-Jan-19 13:33N 37°49' W 122°19'4 0.4
2017-Jan-19 02:20N 37°46' W 122°23'0 0.4
2017-Jan-19 01:33N 37°47' W 122°23'2 1.6
2017-Jan-19 00:33N 37°48' W 122°22'2 0.9
2017-Jan-18 22:33N 37°46' W 122°23'1 1.2
2017-Jan-18 21:34N 37°47' W 122°22'3 2.9
2017-Jan-18 20:33N 37°49' W 122°19'1 0.9
2017-Jan-18 19:33N 37°49' W 122°20'0 0.2
2017-Jan-18 18:33N 37°49' W 122°20'1 0.6
2017-Jan-18 17:33N 37°49' W 122°20'0 0.4
2017-Jan-18 16:33N 37°49' W 122°19'0 0.2
2017-Jan-18 15:33N 37°49' W 122°19'2 1.7
2017-Jan-18 14:33N 37°49' W 122°21'2 1.5
2017-Jan-18 13:34N 37°49' W 122°19'4 0.3
2017-Jan-17 22:16N 37°46' W 122°23'3 3.9
2017-Jan-17 21:33N 37°49' W 122°21'1 0.8
2017-Jan-17 20:33N 37°49' W 122°20'1 0.8
2017-Jan-17 19:33N 37°49' W 122°19'2 1.9
2017-Jan-17 18:33N 37°49' W 122°21'1 1.1
2017-Jan-17 17:33N 37°49' W 122°20'1 0.7
2017-Jan-17 16:33N 37°49' W 122°19'0 0.2
2017-Jan-17 15:11N 37°49' W 122°19'0 0.2
2017-Jan-17 14:33N 37°49' W 122°19'0 0.2
2017-Jan-17 13:33N 37°49' W 122°19'4 0.2
2017-Jan-16 20:10N 37°46' W 122°23'4 5.8
2017-Jan-16 19:33N 37°49' W 122°20'1 0.7
2017-Jan-16 18:33N 37°49' W 122°19'1 1.1
2017-Jan-16 17:33N 37°49' W 122°20'1 0.6
2017-Jan-16 16:33N 37°49' W 122°20'1 0.6
2017-Jan-16 15:33N 37°49' W 122°19'1 1.0
2017-Jan-16 14:33N 37°49' W 122°20'1 0.5
2017-Jan-16 13:33N 37°49' W 122°20'3 0.2
2017-Jan-16 00:08N 37°46' W 122°23'2 4.0
2017-Jan-15 23:33N 37°49' W 122°24'7 6.0
2017-Jan-15 22:27N 37°55' W 122°25'5 5.8
2017-Jan-15 21:33N 37°51' W 122°23'3 2.8
2017-Jan-15 20:34N 37°48' W 122°21'2 1.5
2017-Jan-15 19:33N 37°50' W 122°21'3 3.4
2017-Jan-15 18:33N 37°46' W 122°23'1 0.1
2017-Jan-15 06:33N 37°47' W 122°23'10 9.8
2017-Jan-15 05:32N 37°57' W 122°26'1010.0
2017-Jan-15 04:33N 38°03' W 122°16'2210.4
2017-Jan-15 02:28N 38°01' W 121°49'18 3.6
2017-Jan-14 21:33N 38°03' W 122°11'7 7.3
2017-Jan-14 20:33N 38°02' W 122°21'6 4.9
2017-Jan-14 19:24N 37°59' W 122°27'  
Track history (hours):
 
Tides and Currents Weather Stations Pressure Air Temp Water Temp Dewpoint Dewpoint Depression Visibility Wind Speed Wind Dir Waves Ship Positions

Solana

Owner: TAURUS MARINE, SAN FRANCISCO, CA. More information available from US FCC via Universal Licensing System and Coast Guard Vessel Documentation Center.

Last reported at 2017-Jan-24 18:33 UTC. Time now 2017-Jan-24 19:14 UTC.
Position N 37°48' W 122°22'.

Length 21 m; draft 3 m.

Type: Ship (hazmat cat A). MMSI: 366969740.

Date/timePositionNaut miles runAvg speedWind from/ knotsBaromVisibWave heightAir tempDewpointWater temp
2017-Jan-24 18:33N 37°48' W 122°22'1 1.3
2017-Jan-24 17:33N 37°48' W 122°23'4 4.1
2017-Jan-24 16:33N 37°49' W 122°19'0 0.4
2017-Jan-24 15:33N 37°49' W 122°19'1 1.0
2017-Jan-24 14:33N 37°49' W 122°20'1 0.8
2017-Jan-24 13:34N 37°49' W 122°19'3 0.2
2017-Jan-23 22:33N 37°47' W 122°23'4 3.9
2017-Jan-23 21:33N 37°49' W 122°19'0 0.3
2017-Jan-23 20:33N 37°49' W 122°19'1 1.0
2017-Jan-23 19:33N 37°49' W 122°20'1 0.8
2017-Jan-23 18:33N 37°48' W 122°20'0 0.2
2017-Jan-23 17:34N 37°49' W 122°21'1 1.4
2017-Jan-23 16:33N 37°49' W 122°19'1 0.5
2017-Jan-23 15:33N 37°49' W 122°20'1 0.5
2017-Jan-23 14:33N 37°49' W 122°20'1 0.9
2017-Jan-23 13:33N 37°49' W 122°19'4 0.1
2017-Jan-22 08:09N 37°46' W 122°23'0 0.0
2017-Jan-22 07:33N 37°46' W 122°23'0 0.0
2017-Jan-22 06:34N 37°46' W 122°23'0 0.0
2017-Jan-22 05:34N 37°46' W 122°23'0 0.0
2017-Jan-22 04:34N 37°46' W 122°23'0 0.0
2017-Jan-21 00:33N 37°46' W 122°23'3 2.6
2017-Jan-20 23:34N 37°49' W 122°25'0 0.0
2017-Jan-20 22:33N 37°49' W 122°25'4 4.1
2017-Jan-20 21:33N 37°49' W 122°20'0 0.5
2017-Jan-20 20:34N 37°49' W 122°20'0 0.0
2017-Jan-20 19:34N 37°49' W 122°20'1 0.8
2017-Jan-20 18:34N 37°49' W 122°19'1 0.8
2017-Jan-20 17:34N 37°49' W 122°20'0 0.0
2017-Jan-20 16:33N 37°49' W 122°20'0 0.5
2017-Jan-20 15:33N 37°49' W 122°20'1 1.4
2017-Jan-20 14:34N 37°49' W 122°21'2 1.9
2017-Jan-20 13:34N 37°49' W 122°19'4 0.4
2017-Jan-20 03:33N 37°46' W 122°23'0 0.0
2017-Jan-20 02:33N 37°46' W 122°23'2 2.2
2017-Jan-20 01:33N 37°45' W 122°21'2 1.9
2017-Jan-20 00:33N 37°46' W 122°23'0 0.3
2017-Jan-19 23:33N 37°46' W 122°23'0 0.0
2017-Jan-19 22:05N 37°46' W 122°23'3 5.6
2017-Jan-19 21:33N 37°49' W 122°20'1 0.8
2017-Jan-19 20:33N 37°49' W 122°20'0 0.3
2017-Jan-19 19:33N 37°49' W 122°20'1 0.7
2017-Jan-19 18:33N 37°49' W 122°19'0 0.0
2017-Jan-19 17:33N 37°49' W 122°19'0 0.0
2017-Jan-19 16:33N 37°49' W 122°19'0 0.0
2017-Jan-19 15:33N 37°49' W 122°19'1 0.7
2017-Jan-19 14:33N 37°49' W 122°20'1 0.6
2017-Jan-19 13:33N 37°49' W 122°19'4 0.4
2017-Jan-19 02:20N 37°46' W 122°23'0 0.4
2017-Jan-19 01:33N 37°47' W 122°23'2 1.6
2017-Jan-19 00:33N 37°48' W 122°22'2 0.9
2017-Jan-18 22:33N 37°46' W 122°23'1 1.2
2017-Jan-18 21:34N 37°47' W 122°22'3 2.9
2017-Jan-18 20:33N 37°49' W 122°19'1 0.9
2017-Jan-18 19:33N 37°49' W 122°20'0 0.2
2017-Jan-18 18:33N 37°49' W 122°20'1 0.6
2017-Jan-18 17:33N 37°49' W 122°20'0 0.4
2017-Jan-18 16:33N 37°49' W 122°19'0 0.2
2017-Jan-18 15:33N 37°49' W 122°19'2 1.7
2017-Jan-18 14:33N 37°49' W 122°21'2 1.5
2017-Jan-18 13:34N 37°49' W 122°19'4 0.3
2017-Jan-17 22:16N 37°46' W 122°23'3 3.9
2017-Jan-17 21:33N 37°49' W 122°21'1 0.8
2017-Jan-17 20:33N 37°49' W 122°20'1 0.8
2017-Jan-17 19:33N 37°49' W 122°19'2 1.9
2017-Jan-17 18:33N 37°49' W 122°21'1 1.1
2017-Jan-17 17:33N 37°49' W 122°20'1 0.7
2017-Jan-17 16:33N 37°49' W 122°19'0 0.2
2017-Jan-17 15:11N 37°49' W 122°19'0 0.2
2017-Jan-17 14:33N 37°49' W 122°19'0 0.2
2017-Jan-17 13:33N 37°49' W 122°19'4 0.2
2017-Jan-16 20:10N 37°46' W 122°23'4 5.8
2017-Jan-16 19:33N 37°49' W 122°20'1 0.7
2017-Jan-16 18:33N 37°49' W 122°19'1 1.1
2017-Jan-16 17:33N 37°49' W 122°20'1 0.6
2017-Jan-16 16:33N 37°49' W 122°20'1 0.6
2017-Jan-16 15:33N 37°49' W 122°19'1 1.0
2017-Jan-16 14:33N 37°49' W 122°20'1 0.5
2017-Jan-16 13:33N 37°49' W 122°20'3 0.2
2017-Jan-16 00:08N 37°46' W 122°23'2 4.0
2017-Jan-15 23:33N 37°49' W 122°24'7 6.0
2017-Jan-15 22:27N 37°55' W 122°25'5 5.8
2017-Jan-15 21:33N 37°51' W 122°23'3 2.8
2017-Jan-15 20:34N 37°48' W 122°21'2 1.5
2017-Jan-15 19:33N 37°50' W 122°21'3 3.4
2017-Jan-15 18:33N 37°46' W 122°23'1 0.1
2017-Jan-15 06:33N 37°47' W 122°23'10 9.8
2017-Jan-15 05:32N 37°57' W 122°26'1010.0
2017-Jan-15 04:33N 38°03' W 122°16'2210.4
2017-Jan-15 02:28N 38°01' W 121°49'18 3.6
2017-Jan-14 21:33N 38°03' W 122°11'7 7.3
2017-Jan-14 20:33N 38°02' W 122°21'6 4.9
2017-Jan-14 19:24N 37°59' W 122°27'  

Dump ship's entire track history